sensor_id;sensor_type;location;lat;lon;timestamp;pressure;altitude;pressure_sealevel;temperature;humidity
56084;BME280;41958;52.416;13.428;2023-01-29T00:01:49;102124.06;;;-0.45;83.44
56084;BME280;41958;52.416;13.428;2023-01-29T00:04:15;102132.44;;;-0.52;83.87
56084;BME280;41958;52.416;13.428;2023-01-29T00:06:40;102094.25;;;-0.65;83.65
56084;BME280;41958;52.416;13.428;2023-01-29T00:09:06;102118.72;;;-0.52;83.55
56084;BME280;41958;52.416;13.428;2023-01-29T00:11:31;102114.78;;;-0.56;83.72
56084;BME280;41958;52.416;13.428;2023-01-29T00:13:56;102104.84;;;-0.57;83.97
56084;BME280;41958;52.416;13.428;2023-01-29T00:16:22;102103.41;;;-0.48;84.21
56084;BME280;41958;52.416;13.428;2023-01-29T00:18:47;102106.66;;;-0.51;83.98
56084;BME280;41958;52.416;13.428;2023-01-29T00:21:15;102106.28;;;-0.43;84.09
56084;BME280;41958;52.416;13.428;2023-01-29T00:23:41;102102.22;;;-0.52;83.66
56084;BME280;41958;52.416;13.428;2023-01-29T00:26:06;102103.31;;;-0.53;83.48
56084;BME280;41958;52.416;13.428;2023-01-29T00:28:32;102109.66;;;-0.53;83.47
56084;BME280;41958;52.416;13.428;2023-01-29T00:30:57;102104.84;;;-0.45;84.75
56084;BME280;41958;52.416;13.428;2023-01-29T00:33:22;102093.63;;;-0.44;83.88
56084;BME280;41958;52.416;13.428;2023-01-29T00:35:48;102095.19;;;-0.48;84.39
56084;BME280;41958;52.416;13.428;2023-01-29T00:38:13;102082.06;;;-0.46;84.78
56084;BME280;41958;52.416;13.428;2023-01-29T00:40:39;102081.34;;;-0.53;84.93
56084;BME280;41958;52.416;13.428;2023-01-29T00:43:23;102074.63;;;-0.45;84.62
56084;BME280;41958;52.416;13.428;2023-01-29T00:46:07;102072.50;;;-0.43;83.89
56084;BME280;41958;52.416;13.428;2023-01-29T00:48:33;102071.31;;;-0.47;84.58
56084;BME280;41958;52.416;13.428;2023-01-29T00:50:59;102067.59;;;-0.53;83.94
56084;BME280;41958;52.416;13.428;2023-01-29T00:53:24;102064.53;;;-0.57;84.83
56084;BME280;41958;52.416;13.428;2023-01-29T00:55:50;102057.91;;;-0.44;85.77
56084;BME280;41958;52.416;13.428;2023-01-29T00:58:15;102066.41;;;-0.45;84.97
56084;BME280;41958;52.416;13.428;2023-01-29T01:00:46;102060.78;;;-0.51;85.26
56084;BME280;41958;52.416;13.428;2023-01-29T01:03:11;102052.41;;;-0.44;85.35
56084;BME280;41958;52.416;13.428;2023-01-29T01:05:36;102060.34;;;-0.47;85.07
56084;BME280;41958;52.416;13.428;2023-01-29T01:08:03;102069.25;;;-0.40;85.46
56084;BME280;41958;52.416;13.428;2023-01-29T01:10:57;102070.72;;;-0.61;85.11
56084;BME280;41958;52.416;13.428;2023-01-29T01:13:22;102064.63;;;-0.52;85.87
56084;BME280;41958;52.416;13.428;2023-01-29T01:15:48;102065.56;;;-0.46;85.15
56084;BME280;41958;52.416;13.428;2023-01-29T01:18:13;102069.50;;;-0.42;85.86
56084;BME280;41958;52.416;13.428;2023-01-29T01:20:39;102075.94;;;-0.36;85.42
56084;BME280;41958;52.416;13.428;2023-01-29T01:23:05;102072.56;;;-0.38;84.90
56084;BME280;41958;52.416;13.428;2023-01-29T01:25:30;102053.53;;;-0.57;85.79
56084;BME280;41958;52.416;13.428;2023-01-29T01:27:57;102070.34;;;-0.41;84.88
56084;BME280;41958;52.416;13.428;2023-01-29T01:30:23;102065.34;;;-0.44;85.42
56084;BME280;41958;52.416;13.428;2023-01-29T01:32:49;102071.75;;;-0.39;85.69
56084;BME280;41958;52.416;13.428;2023-01-29T01:35:14;102070.94;;;-0.39;86.08
56084;BME280;41958;52.416;13.428;2023-01-29T01:37:40;102058.72;;;-0.31;85.33
56084;BME280;41958;52.416;13.428;2023-01-29T01:40:12;102063.75;;;-0.28;85.04
56084;BME280;41958;52.416;13.428;2023-01-29T01:42:43;102062.34;;;-0.43;86.01
56084;BME280;41958;52.416;13.428;2023-01-29T01:45:32;102066.91;;;-0.48;85.62
56084;BME280;41958;52.416;13.428;2023-01-29T01:48:08;102067.19;;;-0.33;85.80
56084;BME280;41958;52.416;13.428;2023-01-29T01:50:42;102069.13;;;-0.33;85.66
56084;BME280;41958;52.416;13.428;2023-01-29T01:53:12;102072.94;;;-0.35;85.96
56084;BME280;41958;52.416;13.428;2023-01-29T01:55:51;102070.31;;;-0.29;85.84
56084;BME280;41958;52.416;13.428;2023-01-29T01:58:23;102066.75;;;-0.42;86.29
56084;BME280;41958;52.416;13.428;2023-01-29T02:00:50;102068.28;;;-0.34;86.38
56084;BME280;41958;52.416;13.428;2023-01-29T02:03:16;102066.56;;;-0.23;86.62
56084;BME280;41958;52.416;13.428;2023-01-29T02:06:02;102058.72;;;-0.31;86.53
56084;BME280;41958;52.416;13.428;2023-01-29T02:08:54;102057.00;;;-0.21;86.16
56084;BME280;41958;52.416;13.428;2023-01-29T02:11:40;102048.69;;;-0.26;86.34
56084;BME280;41958;52.416;13.428;2023-01-29T02:14:05;102038.81;;;-0.39;86.13
56084;BME280;41958;52.416;13.428;2023-01-29T02:16:34;102047.34;;;-0.23;86.38
56084;BME280;41958;52.416;13.428;2023-01-29T02:19:00;102040.88;;;-0.17;86.10
56084;BME280;41958;52.416;13.428;2023-01-29T02:27:14;102040.91;;;-0.29;85.98
56084;BME280;41958;52.416;13.428;2023-01-29T02:29:49;102040.47;;;-0.38;86.26
56084;BME280;41958;52.416;13.428;2023-01-29T02:32:41;102042.16;;;-0.37;86.83
56084;BME280;41958;52.416;13.428;2023-01-29T02:35:27;102037.50;;;-0.48;86.72
56084;BME280;41958;52.416;13.428;2023-01-29T02:41:12;102039.03;;;-0.40;86.89
56084;BME280;41958;52.416;13.428;2023-01-29T02:44:01;102034.06;;;-0.43;87.14
56084;BME280;41958;52.416;13.428;2023-01-29T02:46:38;102040.66;;;-0.27;86.85
56084;BME280;41958;52.416;13.428;2023-01-29T02:49:20;102036.28;;;-0.28;86.88
56084;BME280;41958;52.416;13.428;2023-01-29T02:52:04;102045.47;;;-0.35;87.73
56084;BME280;41958;52.416;13.428;2023-01-29T02:55:00;102033.97;;;-0.31;87.37
56084;BME280;41958;52.416;13.428;2023-01-29T02:57:34;102032.34;;;-0.32;87.07
56084;BME280;41958;52.416;13.428;2023-01-29T03:02:38;102016.78;;;-0.27;87.20
56084;BME280;41958;52.416;13.428;2023-01-29T03:05:11;102011.16;;;-0.20;87.13
56084;BME280;41958;52.416;13.428;2023-01-29T03:07:43;102014.03;;;-0.27;86.93
56084;BME280;41958;52.416;13.428;2023-01-29T03:10:20;102012.72;;;-0.24;86.96
56084;BME280;41958;52.416;13.428;2023-01-29T03:12:52;102010.69;;;-0.29;87.11
56084;BME280;41958;52.416;13.428;2023-01-29T03:15:23;102022.06;;;-0.37;87.32
56084;BME280;41958;52.416;13.428;2023-01-29T03:18:06;102024.88;;;-0.20;87.23
56084;BME280;41958;52.416;13.428;2023-01-29T03:20:38;102013.53;;;-0.24;86.95
56084;BME280;41958;52.416;13.428;2023-01-29T03:23:11;102008.66;;;-0.22;87.16
56084;BME280;41958;52.416;13.428;2023-01-29T03:25:39;101997.66;;;-0.22;86.95
56084;BME280;41958;52.416;13.428;2023-01-29T03:28:26;102013.97;;;-0.15;86.88
56084;BME280;41958;52.416;13.428;2023-01-29T03:31:12;102016.97;;;-0.17;86.73
56084;BME280;41958;52.416;13.428;2023-01-29T03:34:04;102006.53;;;-0.31;87.04
56084;BME280;41958;52.416;13.428;2023-01-29T03:36:56;102007.28;;;-0.19;87.25
56084;BME280;41958;52.416;13.428;2023-01-29T03:39:25;101992.88;;;-0.26;87.55
56084;BME280;41958;52.416;13.428;2023-01-29T03:42:08;101991.56;;;-0.24;87.40
56084;BME280;41958;52.416;13.428;2023-01-29T03:47:19;101999.22;;;-0.26;88.05
56084;BME280;41958;52.416;13.428;2023-01-29T03:50:06;101982.91;;;-0.32;87.83
56084;BME280;41958;52.416;13.428;2023-01-29T03:52:47;101981.91;;;-0.26;87.72
56084;BME280;41958;52.416;13.428;2023-01-29T03:55:31;101972.63;;;-0.37;87.83
56084;BME280;41958;52.416;13.428;2023-01-29T03:58:05;101970.81;;;-0.31;87.90
56084;BME280;41958;52.416;13.428;2023-01-29T04:00:57;101960.94;;;-0.32;87.85
56084;BME280;41958;52.416;13.428;2023-01-29T04:03:34;101963.75;;;-0.27;87.59
56084;BME280;41958;52.416;13.428;2023-01-29T04:06:07;101931.47;;;-0.49;87.85
56084;BME280;41958;52.416;13.428;2023-01-29T04:08:39;101949.28;;;-0.23;88.02
56084;BME280;41958;52.416;13.428;2023-01-29T04:11:11;101942.63;;;-0.27;88.17
56084;BME280;41958;52.416;13.428;2023-01-29T04:13:39;101937.94;;;-0.26;88.59
56084;BME280;41958;52.416;13.428;2023-01-29T04:16:06;101933.09;;;-0.36;88.24
56084;BME280;41958;52.416;13.428;2023-01-29T04:18:35;101931.88;;;-0.28;88.49
56084;BME280;41958;52.416;13.428;2023-01-29T04:21:00;101923.50;;;-0.22;88.50
56084;BME280;41958;52.416;13.428;2023-01-29T04:23:26;101912.72;;;-0.23;88.41
56084;BME280;41958;52.416;13.428;2023-01-29T04:26:14;101907.91;;;-0.16;88.05
56084;BME280;41958;52.416;13.428;2023-01-29T04:29:08;101904.56;;;-0.18;88.51
56084;BME280;41958;52.416;13.428;2023-01-29T04:32:09;101907.31;;;-0.18;88.88
56084;BME280;41958;52.416;13.428;2023-01-29T04:34:54;101893.91;;;-0.31;89.23
56084;BME280;41958;52.416;13.428;2023-01-29T04:38:00;101897.09;;;-0.23;89.58
56084;BME280;41958;52.416;13.428;2023-01-29T04:40:56;101895.50;;;-0.19;89.18
56084;BME280;41958;52.416;13.428;2023-01-29T04:43:37;101885.03;;;-0.22;88.96
56084;BME280;41958;52.416;13.428;2023-01-29T04:46:22;101886.03;;;-0.11;88.75
56084;BME280;41958;52.416;13.428;2023-01-29T04:49:08;101896.41;;;-0.13;88.83
56084;BME280;41958;52.416;13.428;2023-01-29T04:51:48;101895.41;;;-0.24;88.63
56084;BME280;41958;52.416;13.428;2023-01-29T04:54:27;101896.16;;;-0.11;89.66
56084;BME280;41958;52.416;13.428;2023-01-29T04:57:05;101903.66;;;-0.24;89.68
56084;BME280;41958;52.416;13.428;2023-01-29T04:59:39;101898.34;;;-0.13;89.91
56084;BME280;41958;52.416;13.428;2023-01-29T05:02:06;101904.00;;;-0.03;89.55
56084;BME280;41958;52.416;13.428;2023-01-29T05:04:35;101901.25;;;-0.03;89.52
56084;BME280;41958;52.416;13.428;2023-01-29T05:07:08;101900.34;;;-0.09;90.38
56084;BME280;41958;52.416;13.428;2023-01-29T05:09:36;101900.44;;;-0.04;89.96
56084;BME280;41958;52.416;13.428;2023-01-29T05:12:05;101898.59;;;0.02;90.30
56084;BME280;41958;52.416;13.428;2023-01-29T05:14:33;101891.75;;;0.05;90.50
56084;BME280;41958;52.416;13.428;2023-01-29T05:17:02;101911.41;;;0.13;90.34
56084;BME280;41958;52.416;13.428;2023-01-29T05:19:29;101900.09;;;0.10;90.92
56084;BME280;41958;52.416;13.428;2023-01-29T05:21:55;101911.66;;;0.12;91.23
56084;BME280;41958;52.416;13.428;2023-01-29T05:24:23;101908.66;;;0.13;93.02
56084;BME280;41958;52.416;13.428;2023-01-29T05:26:50;101910.56;;;0.13;93.62
56084;BME280;41958;52.416;13.428;2023-01-29T05:29:35;101902.16;;;0.20;93.86
56084;BME280;41958;52.416;13.428;2023-01-29T05:32:00;101902.50;;;0.06;93.41
56084;BME280;41958;52.416;13.428;2023-01-29T05:34:26;101901.50;;;0.12;94.08
56084;BME280;41958;52.416;13.428;2023-01-29T05:36:51;101909.75;;;0.12;94.59
56084;BME280;41958;52.416;13.428;2023-01-29T05:39:17;101910.84;;;0.11;95.39
56084;BME280;41958;52.416;13.428;2023-01-29T05:41:42;101904.31;;;0.17;96.34
56084;BME280;41958;52.416;13.428;2023-01-29T05:44:10;101916.41;;;0.16;97.44
56084;BME280;41958;52.416;13.428;2023-01-29T05:46:36;101921.84;;;0.11;97.44
56084;BME280;41958;52.416;13.428;2023-01-29T05:49:02;101916.16;;;0.01;99.73
56084;BME280;41958;52.416;13.428;2023-01-29T05:51:27;101914.25;;;0.02;99.97
56084;BME280;41958;52.416;13.428;2023-01-29T05:53:52;101921.09;;;-0.01;100.00
56084;BME280;41958;52.416;13.428;2023-01-29T05:56:18;101917.47;;;-0.02;100.00
56084;BME280;41958;52.416;13.428;2023-01-29T05:58:43;101925.41;;;-0.05;100.00
56084;BME280;41958;52.416;13.428;2023-01-29T06:01:11;101930.75;;;0.02;100.00
56084;BME280;41958;52.416;13.428;2023-01-29T06:03:36;101916.66;;;-0.02;100.00
56084;BME280;41958;52.416;13.428;2023-01-29T06:06:02;101923.31;;;0.02;100.00
56084;BME280;41958;52.416;13.428;2023-01-29T06:08:27;101930.06;;;-0.06;100.00
56084;BME280;41958;52.416;13.428;2023-01-29T06:10:52;101932.66;;;0.01;100.00
56084;BME280;41958;52.416;13.428;2023-01-29T06:13:17;101934.72;;;0.11;100.00
56084;BME280;41958;52.416;13.428;2023-01-29T06:15:42;101946.97;;;0.03;100.00
56084;BME280;41958;52.416;13.428;2023-01-29T06:18:08;101949.13;;;0.01;100.00
56084;BME280;41958;52.416;13.428;2023-01-29T06:20:33;101940.88;;;0.01;100.00
56084;BME280;41958;52.416;13.428;2023-01-29T06:22:58;101942.16;;;-0.07;100.00
56084;BME280;41958;52.416;13.428;2023-01-29T06:25:24;101941.91;;;-0.05;100.00
56084;BME280;41958;52.416;13.428;2023-01-29T06:27:49;101929.81;;;-0.04;100.00
56084;BME280;41958;52.416;13.428;2023-01-29T06:30:15;101937.66;;;0.04;100.00
56084;BME280;41958;52.416;13.428;2023-01-29T06:32:40;101942.66;;;0.07;100.00
56084;BME280;41958;52.416;13.428;2023-01-29T06:35:06;101923.91;;;0.04;100.00
56084;BME280;41958;52.416;13.428;2023-01-29T06:37:31;101922.34;;;0.08;100.00
56084;BME280;41958;52.416;13.428;2023-01-29T06:39:56;101922.09;;;0.10;100.00
56084;BME280;41958;52.416;13.428;2023-01-29T06:42:22;101927.91;;;0.13;100.00
56084;BME280;41958;52.416;13.428;2023-01-29T06:44:52;101940.66;;;0.20;100.00
56084;BME280;41958;52.416;13.428;2023-01-29T06:47:17;101931.50;;;0.14;100.00
56084;BME280;41958;52.416;13.428;2023-01-29T06:49:42;101929.81;;;0.13;100.00
56084;BME280;41958;52.416;13.428;2023-01-29T06:52:08;101950.22;;;0.17;100.00
56084;BME280;41958;52.416;13.428;2023-01-29T06:54:34;101946.06;;;0.14;100.00
56084;BME280;41958;52.416;13.428;2023-01-29T06:56:59;101948.31;;;0.17;100.00
56084;BME280;41958;52.416;13.428;2023-01-29T06:59:24;101936.56;;;0.22;100.00
56084;BME280;41958;52.416;13.428;2023-01-29T07:01:49;101942.50;;;0.14;100.00
56084;BME280;41958;52.416;13.428;2023-01-29T07:04:15;101930.97;;;0.17;100.00
56084;BME280;41958;52.416;13.428;2023-01-29T07:06:40;101938.81;;;0.25;100.00
56084;BME280;41958;52.416;13.428;2023-01-29T07:09:05;101924.50;;;0.06;100.00
56084;BME280;41958;52.416;13.428;2023-01-29T07:11:31;101940.75;;;0.25;100.00
56084;BME280;41958;52.416;13.428;2023-01-29T07:13:57;101932.97;;;0.22;100.00
56084;BME280;41958;52.416;13.428;2023-01-29T07:16:23;101929.56;;;0.31;100.00
56084;BME280;41958;52.416;13.428;2023-01-29T07:18:50;101942.47;;;0.31;100.00
56084;BME280;41958;52.416;13.428;2023-01-29T07:21:15;101932.88;;;0.33;100.00
56084;BME280;41958;52.416;13.428;2023-01-29T07:23:40;101918.63;;;0.37;100.00
56084;BME280;41958;52.416;13.428;2023-01-29T07:26:06;101925.88;;;0.43;100.00
56084;BME280;41958;52.416;13.428;2023-01-29T07:28:35;101921.97;;;0.39;100.00
56084;BME280;41958;52.416;13.428;2023-01-29T07:31:00;101927.38;;;0.33;100.00
56084;BME280;41958;52.416;13.428;2023-01-29T07:33:25;101930.56;;;0.42;100.00
56084;BME280;41958;52.416;13.428;2023-01-29T07:35:51;101930.81;;;0.41;100.00
56084;BME280;41958;52.416;13.428;2023-01-29T07:38:17;101934.38;;;0.41;100.00
56084;BME280;41958;52.416;13.428;2023-01-29T07:40:42;101931.91;;;0.40;100.00
56084;BME280;41958;52.416;13.428;2023-01-29T07:43:08;101932.88;;;0.50;100.00
56084;BME280;41958;52.416;13.428;2023-01-29T07:45:34;101932.19;;;0.43;100.00
56084;BME280;41958;52.416;13.428;2023-01-29T07:48:00;101930.44;;;0.54;100.00
56084;BME280;41958;52.416;13.428;2023-01-29T07:50:26;101914.97;;;0.48;100.00
56084;BME280;41958;52.416;13.428;2023-01-29T07:52:55;101911.56;;;0.41;100.00
56084;BME280;41958;52.416;13.428;2023-01-29T07:55:20;101903.31;;;0.41;100.00
56084;BME280;41958;52.416;13.428;2023-01-29T07:57:46;101901.78;;;0.50;100.00
56084;BME280;41958;52.416;13.428;2023-01-29T08:00:12;101883.13;;;0.35;100.00
56084;BME280;41958;52.416;13.428;2023-01-29T08:02:39;101883.81;;;0.42;100.00
56084;BME280;41958;52.416;13.428;2023-01-29T08:05:04;101884.63;;;0.43;100.00
56084;BME280;41958;52.416;13.428;2023-01-29T08:07:30;101896.44;;;0.43;100.00
56084;BME280;41958;52.416;13.428;2023-01-29T08:09:55;101913.94;;;0.54;100.00
56084;BME280;41958;52.416;13.428;2023-01-29T08:12:20;101898.09;;;0.61;100.00
56084;BME280;41958;52.416;13.428;2023-01-29T08:14:46;101889.13;;;0.49;100.00
56084;BME280;41958;52.416;13.428;2023-01-29T08:17:12;101881.78;;;0.55;100.00
56084;BME280;41958;52.416;13.428;2023-01-29T08:19:37;101884.84;;;0.58;100.00
56084;BME280;41958;52.416;13.428;2023-01-29T08:22:03;101894.94;;;0.53;100.00
56084;BME280;41958;52.416;13.428;2023-01-29T08:24:29;101885.28;;;0.50;100.00
56084;BME280;41958;52.416;13.428;2023-01-29T08:26:54;101886.13;;;0.50;100.00
56084;BME280;41958;52.416;13.428;2023-01-29T08:29:19;101896.44;;;0.60;100.00
56084;BME280;41958;52.416;13.428;2023-01-29T08:31:45;101884.66;;;0.65;100.00
56084;BME280;41958;52.416;13.428;2023-01-29T08:34:10;101879.13;;;0.43;100.00
56084;BME280;41958;52.416;13.428;2023-01-29T08:36:35;101886.75;;;0.58;100.00
56084;BME280;41958;52.416;13.428;2023-01-29T08:39:01;101880.50;;;0.62;100.00
56084;BME280;41958;52.416;13.428;2023-01-29T08:41:26;101879.03;;;0.55;100.00
56084;BME280;41958;52.416;13.428;2023-01-29T08:43:51;101881.84;;;0.60;100.00
56084;BME280;41958;52.416;13.428;2023-01-29T08:46:17;101882.03;;;0.53;100.00
56084;BME280;41958;52.416;13.428;2023-01-29T08:48:42;101883.25;;;0.62;100.00
56084;BME280;41958;52.416;13.428;2023-01-29T08:51:07;101878.59;;;0.63;100.00
56084;BME280;41958;52.416;13.428;2023-01-29T08:53:33;101885.09;;;0.57;100.00
56084;BME280;41958;52.416;13.428;2023-01-29T08:55:58;101876.16;;;0.66;100.00
56084;BME280;41958;52.416;13.428;2023-01-29T08:58:23;101889.84;;;0.61;100.00
56084;BME280;41958;52.416;13.428;2023-01-29T09:00:48;101895.22;;;0.73;100.00
56084;BME280;41958;52.416;13.428;2023-01-29T09:03:14;101883.25;;;0.62;100.00
56084;BME280;41958;52.416;13.428;2023-01-29T09:05:40;101878.06;;;0.66;100.00
56084;BME280;41958;52.416;13.428;2023-01-29T09:08:06;101869.44;;;0.57;100.00
56084;BME280;41958;52.416;13.428;2023-01-29T09:10:32;101871.47;;;0.67;100.00
56084;BME280;41958;52.416;13.428;2023-01-29T09:12:57;101873.16;;;0.68;100.00
56084;BME280;41958;52.416;13.428;2023-01-29T09:15:23;101855.50;;;0.64;100.00
56084;BME280;41958;52.416;13.428;2023-01-29T09:17:48;101861.78;;;0.81;100.00
56084;BME280;41958;52.416;13.428;2023-01-29T09:20:13;101865.09;;;0.83;100.00
56084;BME280;41958;52.416;13.428;2023-01-29T09:22:39;101879.47;;;0.91;100.00
56084;BME280;41958;52.416;13.428;2023-01-29T09:25:04;101870.47;;;0.95;100.00
56084;BME280;41958;52.416;13.428;2023-01-29T09:27:30;101875.00;;;0.84;100.00
56084;BME280;41958;52.416;13.428;2023-01-29T09:29:55;101869.88;;;0.93;100.00
56084;BME280;41958;52.416;13.428;2023-01-29T09:32:20;101873.84;;;1.03;100.00
56084;BME280;41958;52.416;13.428;2023-01-29T09:34:45;101876.59;;;1.03;100.00
56084;BME280;41958;52.416;13.428;2023-01-29T09:37:11;101875.59;;;1.09;100.00
56084;BME280;41958;52.416;13.428;2023-01-29T09:39:36;101878.69;;;1.17;100.00
56084;BME280;41958;52.416;13.428;2023-01-29T09:42:11;101857.13;;;1.09;100.00
56084;BME280;41958;52.416;13.428;2023-01-29T09:44:48;101870.50;;;1.23;100.00
56084;BME280;41958;52.416;13.428;2023-01-29T09:47:19;101869.50;;;1.34;100.00
56084;BME280;41958;52.416;13.428;2023-01-29T09:49:51;101859.16;;;1.19;100.00
56084;BME280;41958;52.416;13.428;2023-01-29T09:52:22;101846.72;;;1.44;100.00
56084;BME280;41958;52.416;13.428;2023-01-29T09:54:59;101848.09;;;1.41;100.00
56084;BME280;41958;52.416;13.428;2023-01-29T09:57:32;101838.25;;;1.50;100.00
56084;BME280;41958;52.416;13.428;2023-01-29T09:59:58;101836.69;;;1.60;100.00
56084;BME280;41958;52.416;13.428;2023-01-29T10:02:53;101830.56;;;1.52;100.00
56084;BME280;41958;52.416;13.428;2023-01-29T10:05:29;101823.56;;;1.72;100.00
56084;BME280;41958;52.416;13.428;2023-01-29T10:13:26;101829.47;;;1.86;100.00
56084;BME280;41958;52.416;13.428;2023-01-29T10:21:43;101802.53;;;1.98;100.00
56084;BME280;41958;52.416;13.428;2023-01-29T10:24:30;101792.06;;;2.00;100.00
56084;BME280;41958;52.416;13.428;2023-01-29T10:26:58;101793.34;;;2.30;100.00
56084;BME280;41958;52.416;13.428;2023-01-29T10:29:25;101796.81;;;2.10;100.00
56084;BME280;41958;52.416;13.428;2023-01-29T10:31:55;101795.28;;;2.30;100.00
56084;BME280;41958;52.416;13.428;2023-01-29T10:34:32;101805.00;;;2.48;98.39
56084;BME280;41958;52.416;13.428;2023-01-29T10:37:27;101807.00;;;2.63;98.53
56084;BME280;41958;52.416;13.428;2023-01-29T10:39:50;101806.66;;;2.44;97.79
56084;BME280;41958;52.416;13.428;2023-01-29T10:42:25;101787.91;;;2.46;97.04
56084;BME280;41958;52.416;13.428;2023-01-29T10:45:04;101793.72;;;2.55;97.42
56084;BME280;41958;52.416;13.428;2023-01-29T10:48:02;101787.66;;;2.52;96.97
56084;BME280;41958;52.416;13.428;2023-01-29T10:50:43;101784.13;;;2.67;97.03
56084;BME280;41958;52.416;13.428;2023-01-29T10:56:05;101781.91;;;2.64;96.55
56084;BME280;41958;52.416;13.428;2023-01-29T10:58:42;101772.59;;;2.81;96.40
56084;BME280;41958;52.416;13.428;2023-01-29T11:01:12;101770.38;;;2.83;95.94
56084;BME280;41958;52.416;13.428;2023-01-29T11:03:37;101769.03;;;3.01;95.33
56084;BME280;41958;52.416;13.428;2023-01-29T11:06:22;101756.59;;;3.03;95.01
56084;BME280;41958;52.416;13.428;2023-01-29T11:08:50;101744.72;;;2.98;94.61
56084;BME280;41958;52.416;13.428;2023-01-29T11:11:18;101750.53;;;3.12;93.63
56084;BME280;41958;52.416;13.428;2023-01-29T11:13:56;101749.97;;;3.04;93.77
56084;BME280;41958;52.416;13.428;2023-01-29T11:16:22;101751.41;;;3.17;94.11
56084;BME280;41958;52.416;13.428;2023-01-29T11:18:56;101742.00;;;3.24;92.58
56084;BME280;41958;52.416;13.428;2023-01-29T11:21:23;101733.16;;;3.37;92.64
56084;BME280;41958;52.416;13.428;2023-01-29T11:23:50;101746.69;;;3.49;92.93
56084;BME280;41958;52.416;13.428;2023-01-29T11:26:20;101734.78;;;3.48;91.98
56084;BME280;41958;52.416;13.428;2023-01-29T11:28:49;101730.41;;;3.47;92.44
56084;BME280;41958;52.416;13.428;2023-01-29T11:31:20;101726.50;;;3.48;91.94
56084;BME280;41958;52.416;13.428;2023-01-29T11:33:47;101721.50;;;3.66;92.24
56084;BME280;41958;52.416;13.428;2023-01-29T11:36:27;101718.22;;;3.53;90.90
56084;BME280;41958;52.416;13.428;2023-01-29T11:42:02;101709.41;;;3.51;90.09
56084;BME280;41958;52.416;13.428;2023-01-29T11:44:39;101708.25;;;3.73;89.71
56084;BME280;41958;52.416;13.428;2023-01-29T11:47:21;101704.63;;;3.83;90.13
56084;BME280;41958;52.416;13.428;2023-01-29T11:49:52;101703.84;;;3.62;89.71
56084;BME280;41958;52.416;13.428;2023-01-29T11:52:21;101698.06;;;3.53;90.20
56084;BME280;41958;52.416;13.428;2023-01-29T11:54:54;101692.00;;;3.41;91.47
56084;BME280;41958;52.416;13.428;2023-01-29T11:57:28;101699.44;;;3.56;90.10
56084;BME280;41958;52.416;13.428;2023-01-29T11:59:57;101682.00;;;3.55;89.26
56084;BME280;41958;52.416;13.428;2023-01-29T12:02:44;101685.38;;;3.36;88.52
56084;BME280;41958;52.416;13.428;2023-01-29T12:05:19;101684.25;;;3.48;88.20
56084;BME280;41958;52.416;13.428;2023-01-29T12:07:50;101678.66;;;3.63;88.92
56084;BME280;41958;52.416;13.428;2023-01-29T12:10:39;101684.25;;;3.53;87.93
56084;BME280;41958;52.416;13.428;2023-01-29T12:15:46;101662.06;;;3.79;88.53
56084;BME280;41958;52.416;13.428;2023-01-29T12:18:35;101663.22;;;3.62;87.04
56084;BME280;41958;52.416;13.428;2023-01-29T12:21:04;101652.41;;;3.71;89.16
56084;BME280;41958;52.416;13.428;2023-01-29T12:23:40;101652.69;;;3.59;87.51
56084;BME280;41958;52.416;13.428;2023-01-29T12:26:14;101641.91;;;3.63;87.74
56084;BME280;41958;52.416;13.428;2023-01-29T12:28:50;101641.94;;;3.52;87.14
56084;BME280;41958;52.416;13.428;2023-01-29T12:31:33;101649.63;;;3.76;87.77
56084;BME280;41958;52.416;13.428;2023-01-29T12:34:09;101644.38;;;3.69;87.36
56084;BME280;41958;52.416;13.428;2023-01-29T12:36:47;101634.72;;;3.72;87.03
56084;BME280;41958;52.416;13.428;2023-01-29T12:39:17;101640.44;;;3.91;87.27
56084;BME280;41958;52.416;13.428;2023-01-29T12:42:00;101627.22;;;3.83;86.97
56084;BME280;41958;52.416;13.428;2023-01-29T12:44:35;101612.91;;;3.60;86.46
56084;BME280;41958;52.416;13.428;2023-01-29T12:47:07;101597.41;;;3.64;86.13
56084;BME280;41958;52.416;13.428;2023-01-29T12:49:38;101605.72;;;3.59;85.66
56084;BME280;41958;52.416;13.428;2023-01-29T12:54:54;101598.84;;;3.46;85.88
56084;BME280;41958;52.416;13.428;2023-01-29T12:57:33;101597.75;;;3.42;86.49
56084;BME280;41958;52.416;13.428;2023-01-29T13:00:14;101609.63;;;3.53;86.86
56084;BME280;41958;52.416;13.428;2023-01-29T13:02:48;101607.16;;;3.41;86.20
56084;BME280;41958;52.416;13.428;2023-01-29T13:05:25;101614.00;;;3.64;86.49
56084;BME280;41958;52.416;13.428;2023-01-29T13:07:57;101608.25;;;3.45;88.29
56084;BME280;41958;52.416;13.428;2023-01-29T13:10:31;101609.91;;;3.41;87.28
56084;BME280;41958;52.416;13.428;2023-01-29T13:13:04;101614.88;;;3.44;87.01
56084;BME280;41958;52.416;13.428;2023-01-29T13:15:38;101599.97;;;3.35;87.10
56084;BME280;41958;52.416;13.428;2023-01-29T13:18:30;101597.47;;;3.38;86.52
56084;BME280;41958;52.416;13.428;2023-01-29T13:20:58;101603.00;;;3.49;87.21
56084;BME280;41958;52.416;13.428;2023-01-29T13:23:39;101585.91;;;3.31;87.33
56084;BME280;41958;52.416;13.428;2023-01-29T13:26:07;101594.19;;;3.26;87.71
56084;BME280;41958;52.416;13.428;2023-01-29T13:28:32;101593.03;;;3.48;87.05
56084;BME280;41958;52.416;13.428;2023-01-29T13:31:13;101593.84;;;3.53;86.89
56084;BME280;41958;52.416;13.428;2023-01-29T13:33:42;101586.38;;;3.54;86.50
56084;BME280;41958;52.416;13.428;2023-01-29T13:36:25;101575.09;;;3.45;87.44
56084;BME280;41958;52.416;13.428;2023-01-29T13:39:06;101591.97;;;3.38;88.08
56084;BME280;41958;52.416;13.428;2023-01-29T13:41:36;101584.53;;;3.24;87.74